Time;durP1;ratioP1;P1;durP2;ratioP2;P2;SDS_P1;SDS_P2;PMS_P1;PMS_P2;Temp;Humidity;BMP_temperature;BMP_pressure;BME280_temperature;BME280_humidity;BME280_pressure;Samples;Min_cycle;Max_cycle;Signal;HPM_P1;HPM_P2
2022/08/22 00:01:49;;;;;;;6.10;4.75;;;16.70;99.90;;;-141.84;71.62;20015.03;4768959;29;20732;-63
2022/08/22 00:04:28;;;;;;;6.45;4.07;;;16.70;99.90;;;-141.84;71.49;20002.84;4769159;29;20773;-61
2022/08/22 00:07:12;;;;;;;4.90;4.30;;;16.70;99.90;;;-141.84;71.38;19978.47;4768940;29;20742;-61
2022/08/22 00:09:53;;;;;;;5.72;4.60;;;16.70;99.90;;;-141.84;71.57;20010.97;4769104;29;20322;-60
2022/08/22 00:12:28;;;;;;;5.95;4.47;;;16.70;99.90;;;-141.84;72.03;19956.09;4769119;29;20308;-60
2022/08/22 00:15:06;;;;;;;5.55;4.47;;;16.60;99.90;;;-141.84;72.04;19958.13;4769356;30;20235;-60
2022/08/22 00:17:59;;;;;;;4.78;4.28;;;16.60;99.90;;;-141.84;71.29;20000.81;4768834;30;20227;-60
2022/08/22 00:20:44;;;;;;;5.55;4.22;;;16.60;99.90;;;-141.84;71.27;19960.16;4768909;30;20222;-60
2022/08/22 00:23:21;;;;;;;5.82;4.38;;;16.60;99.90;;;-141.84;71.95;19903.25;4768578;29;20239;-61
2022/08/22 00:25:58;;;;;;;5.07;4.38;;;16.60;99.90;;;-141.84;73.07;19937.81;4768619;29;20399;-61
2022/08/22 00:28:36;;;;;;;4.95;4.03;;;16.60;99.90;;;-141.84;73.77;19872.78;4768670;29;20257;-60
2022/08/22 00:31:23;;;;;;;5.03;4.25;;;16.50;99.90;;;-141.84;74.08;19884.97;4768460;29;20234;-60
2022/08/22 00:34:02;;;;;;;8.20;4.78;;;16.50;99.90;;;-141.84;74.08;19854.50;4768850;29;20269;-60
2022/08/22 00:36:42;;;;;;;6.38;4.38;;;16.50;99.90;;;-141.84;74.36;19854.50;4768370;29;20763;-59
2022/08/22 00:39:20;;;;;;;6.50;4.70;;;16.50;99.90;;;-141.84;74.42;19828.06;4768594;29;20222;-60
2022/08/22 00:42:35;;;;;;;6.05;4.60;;;16.50;99.90;;;-141.84;74.10;19858.56;4769009;30;20225;-61
2022/08/22 00:45:28;;;;;;;6.13;4.65;;;16.50;99.90;;;-141.84;73.74;19815.88;4766628;29;20238;-60
2022/08/22 00:48:19;;;;;;;5.22;4.65;;;16.40;99.90;;;-141.84;73.38;19858.56;4768947;30;20226;-60
2022/08/22 00:51:28;;;;;;;7.07;4.85;;;16.50;99.90;;;-141.84;73.13;19824.00;4768525;30;20310;-61
2022/08/22 00:54:11;;;;;;;6.05;5.05;;;16.50;99.90;;;-141.84;73.29;19807.75;4768567;30;20298;-60
2022/08/22 00:57:29;;;;;;;5.22;4.70;;;16.50;99.90;;;-141.84;73.68;19807.75;4768344;30;20211;-60
2022/08/22 01:00:17;;;;;;;5.47;4.40;;;16.50;99.90;;;-141.84;74.08;19797.59;4768178;30;20243;-60
2022/08/22 01:03:46;;;;;;;5.35;4.85;;;16.40;99.90;;;-141.84;74.36;19789.44;4768676;30;20223;-60
2022/08/22 01:06:39;;;;;;;9.02;5.28;;;16.50;99.90;;;-141.84;74.64;19787.41;4768181;30;20688;-61
2022/08/22 01:09:23;;;;;;;5.22;4.70;;;16.50;99.90;;;-141.84;74.23;19803.69;4768015;29;20556;-61
2022/08/22 01:12:45;;;;;;;7.85;5.20;;;16.50;99.90;;;-141.84;74.03;19783.34;4768403;30;20227;-60
2022/08/22 01:15:21;;;;;;;5.20;4.70;;;16.50;99.90;;;-141.84;74.21;19740.69;4752873;29;20674;-62
2022/08/22 01:18:31;;;;;;;6.07;4.88;;;16.50;99.90;;;-141.84;74.38;19693.94;4768371;30;20211;-60
2022/08/22 01:21:55;;;;;;;8.23;5.60;;;16.40;99.90;;;-141.84;74.42;19738.66;4767818;30;20335;-60
2022/08/22 01:25:29;;;;;;;7.57;5.32;;;16.40;99.90;;;-141.84;74.62;19708.16;4768054;29;20263;-60
2022/08/22 01:28:31;;;;;;;6.38;5.10;;;16.40;99.90;;;-141.84;75.18;19687.84;4768097;29;20618;-60
2022/08/22 01:31:56;;;;;;;7.05;5.75;;;16.40;99.90;;;-141.84;75.73;19651.25;4766900;29;20246;-60
2022/08/22 01:35:23;;;;;;;6.93;6.05;;;16.30;99.90;;;-141.84;75.79;19643.13;4749332;30;20246;-60
2022/08/22 01:38:39;;;;;;;6.70;5.90;;;16.20;99.90;;;-141.84;75.43;19622.81;4767721;29;20271;-62
2022/08/22 01:41:40;;;;;;;10.80;5.90;;;16.20;99.90;;;-141.84;75.49;19614.66;4759203;30;20242;-60
2022/08/22 01:44:39;;;;;;;7.78;5.90;;;16.20;99.90;;;-141.84;75.40;19620.78;4767477;29;20708;-61
2022/08/22 01:47:18;;;;;;;7.65;6.13;;;16.20;99.90;;;-141.84;75.49;19590.28;4767520;29;20720;-60
2022/08/22 01:49:54;;;;;;;6.65;6.00;;;16.20;99.90;;;-141.84;76.03;19535.41;4767800;29;20358;-60
2022/08/22 01:52:40;;;;;;;8.20;6.72;;;16.20;99.90;;;-141.84;76.07;19574.03;4767804;29;20231;-60
2022/08/22 01:55:19;;;;;;;7.78;6.05;;;16.20;99.90;;;-141.84;76.21;19525.25;4767532;29;20243;-60
2022/08/22 01:57:55;;;;;;;7.35;6.10;;;16.20;99.90;;;-141.84;77.52;19443.97;4767782;29;20274;-60
2022/08/22 02:00:30;;;;;;;9.13;6.40;;;16.10;99.90;;;-141.84;78.39;19409.41;4768011;29;20607;-61
2022/08/22 02:03:25;;;;;;;8.15;6.07;;;16.10;99.90;;;-141.84;77.99;19399.25;4768545;29;20287;-60
2022/08/22 02:06:05;;;;;;;12.07;6.38;;;16.00;99.90;;;-141.84;77.11;19399.25;4768557;30;20212;-61
2022/08/22 02:08:47;;;;;;;7.03;6.10;;;16.00;99.90;;;-141.84;76.83;19358.63;4768537;30;20635;-61
2022/08/22 02:11:40;;;;;;;7.28;6.07;;;16.00;99.90;;;-141.84;78.11;19338.28;4768066;29;20239;-61
2022/08/22 02:14:26;;;;;;;7.15;6.30;;;16.00;99.90;;;-141.84;77.83;19358.63;4768267;29;20238;-61
2022/08/22 02:17:15;;;;;;;6.90;6.20;;;16.00;99.90;;;-141.84;77.52;19340.31;4767994;29;20245;-60
2022/08/22 02:19:58;;;;;;;10.38;6.03;;;16.00;99.90;;;-141.84;77.99;19287.50;4768176;29;20243;-61
2022/08/22 02:22:38;;;;;;;7.97;6.35;;;16.00;99.90;;;-141.84;78.00;19283.44;4767925;29;20241;-60
2022/08/22 02:25:21;;;;;;;10.05;6.70;;;15.90;99.90;;;-141.84;77.63;19281.41;4768183;29;20326;-60
2022/08/22 02:28:02;;;;;;;7.07;6.35;;;16.00;99.90;;;-141.84;78.01;19220.44;4767967;29;20728;-60
2022/08/22 02:30:50;;;;;;;6.88;6.18;;;15.90;99.90;;;-141.84;78.31;19232.63;4768279;29;20272;-60
2022/08/22 02:33:33;;;;;;;6.97;6.22;;;15.90;99.90;;;-141.84;78.64;19171.66;4768056;29;20239;-61
2022/08/22 02:36:13;;;;;;;7.38;6.32;;;15.90;99.90;;;-141.84;79.00;19147.28;4768581;30;20192;-60
2022/08/22 02:38:58;;;;;;;7.10;5.95;;;15.90;99.90;;;-141.84;79.45;19145.25;4768299;30;20235;-60
2022/08/22 02:41:43;;;;;;;7.00;6.25;;;15.80;99.90;;;-141.84;79.79;19082.25;4769021;29;20742;-61
2022/08/22 02:44:20;;;;;;;8.43;6.40;;;15.90;99.90;;;-141.84;80.07;19049.75;4771117;29;20235;-60
2022/08/22 02:46:58;;;;;;;9.07;6.50;;;15.70;99.90;;;-141.84;78.65;19082.25;4771028;29;20246;-60
2022/08/22 02:49:35;;;;;;;7.28;6.45;;;15.80;99.90;;;-141.84;77.14;19133.06;4771344;29;20322;-61
2022/08/22 02:52:18;;;;;;;7.35;6.63;;;15.80;99.90;;;-141.84;76.03;19189.97;4771065;29;20661;-60
2022/08/22 02:54:59;;;;;;;9.10;6.25;;;15.90;99.90;;;-141.84;76.72;19147.28;4771009;29;20233;-60
2022/08/22 02:57:38;;;;;;;8.48;6.75;;;15.90;99.90;;;-141.84;77.78;19088.34;4771150;29;20230;-60
2022/08/22 03:00:23;;;;;;;6.88;6.25;;;15.80;99.90;;;-141.84;78.48;19086.31;4770935;29;20211;-60
2022/08/22 03:03:14;;;;;;;7.80;6.50;;;15.80;99.90;;;-141.84;79.28;19057.88;4771378;30;20211;-61
2022/08/22 03:05:58;;;;;;;8.10;6.93;;;15.70;99.90;;;-141.84;79.89;18984.72;4771269;30;20219;-61
2022/08/22 03:08:33;;;;;;;7.68;6.88;;;15.60;99.90;;;-141.84;79.54;18982.69;4770526;29;20222;-59
2022/08/22 03:11:17;;;;;;;8.10;7.28;;;15.60;99.90;;;-141.84;79.56;18984.72;4770748;29;20755;-60
2022/08/22 03:14:03;;;;;;;7.32;6.20;;;15.60;99.90;;;-141.84;79.39;18982.69;4770660;29;20239;-60
2022/08/22 03:16:39;;;;;;;7.60;6.88;;;15.60;99.90;;;-141.84;79.52;18970.50;4770622;29;20235;-60
2022/08/22 03:19:15;;;;;;;6.78;6.07;;;15.60;99.90;;;-141.84;79.79;18958.31;4770740;29;20334;-60
2022/08/22 03:21:57;;;;;;;7.40;6.75;;;15.60;99.90;;;-141.84;80.33;18935.97;4770771;29;20227;-60
2022/08/22 03:24:35;;;;;;;8.20;6.95;;;15.60;99.90;;;-141.84;81.06;18864.84;4770934;29;20231;-60
2022/08/22 03:27:13;;;;;;;7.68;6.80;;;15.50;99.90;;;-141.84;81.27;18858.75;4770668;29;20290;-60
2022/08/22 03:30:05;;;;;;;7.18;6.43;;;15.50;99.90;;;-141.84;81.06;18868.91;4771398;30;20234;-60
2022/08/22 03:32:57;;;;;;;8.07;7.28;;;15.50;99.90;;;-141.84;80.27;18875.00;4770811;30;20610;-60
2022/08/22 03:35:39;;;;;;;7.07;6.38;;;15.50;99.90;;;-141.84;80.45;18846.56;4770367;29;20239;-61
2022/08/22 03:38:22;;;;;;;9.63;7.43;;;15.50;99.90;;;-141.84;80.53;18834.38;4769960;29;20245;-60
2022/08/22 03:41:22;;;;;;;8.32;6.90;;;15.50;99.90;;;-141.84;80.18;18856.72;4770242;29;20230;-59
2022/08/22 03:44:37;;;;;;;7.90;7.05;;;15.50;99.90;;;-141.84;80.69;18797.78;4770080;29;20334;-60
2022/08/22 03:47:52;;;;;;;7.70;7.00;;;15.50;99.90;;;-141.84;80.81;18812.00;4770102;29;20319;-60
2022/08/22 03:50:59;;;;;;;9.60;6.95;;;15.40;99.90;;;-141.84;79.33;18840.47;4767674;30;20314;-61
2022/08/22 03:54:14;;;;;;;9.38;7.20;;;15.50;99.90;;;-141.84;79.93;18816.06;4769768;30;20208;-60
2022/08/22 03:57:39;;;;;;;8.38;7.13;;;15.50;99.90;;;-141.84;79.39;18820.16;4770402;30;20238;-59
2022/08/22 04:00:37;;;;;;;8.30;7.38;;;15.50;99.90;;;-141.84;80.40;18818.09;4770107;30;20246;-60
2022/08/22 04:03:52;;;;;;;8.55;7.65;;;15.40;99.90;;;-141.84;80.99;18761.22;4769778;29;20628;-61
2022/08/22 04:07:04;;;;;;;9.77;7.72;;;15.40;99.90;;;-141.84;81.54;18712.47;4769772;29;20265;-60
2022/08/22 04:10:14;;;;;;;9.93;7.28;;;15.30;99.90;;;-141.84;82.05;18694.16;4769493;29;20235;-60
2022/08/22 04:13:14;;;;;;;8.90;7.97;;;15.30;99.90;;;-141.84;82.35;18677.91;4769649;29;20242;-60
2022/08/22 04:16:19;;;;;;;9.57;7.75;;;15.20;99.90;;;-141.84;81.76;18688.06;4769709;29;20319;-60
2022/08/22 04:19:23;;;;;;;8.43;7.65;;;15.30;99.90;;;-141.84;81.71;18679.94;4769435;29;20246;-61
2022/08/22 04:22:36;;;;;;;10.02;8.15;;;15.30;99.90;;;-141.84;80.37;18728.72;4769900;29;20672;-60
2022/08/22 04:25:12;;;;;;;9.15;8.25;;;15.30;99.90;;;-141.84;80.58;18661.66;4764095;29;20322;-59
2022/08/22 04:27:52;;;;;;;9.40;7.78;;;15.30;99.90;;;-141.84;80.74;18669.78;4769463;29;20313;-58
2022/08/22 04:30:30;;;;;;;8.75;7.95;;;15.30;99.90;;;-141.84;80.11;18702.28;4769539;29;20196;-60
2022/08/22 04:33:07;;;;;;;8.30;7.50;;;15.40;99.90;;;-141.84;80.00;18704.31;4770317;30;20291;-61
2022/08/22 04:35:45;;;;;;;8.30;7.22;;;15.40;99.90;;;-141.84;79.66;18700.25;4769625;30;20241;-60
2022/08/22 04:38:24;;;;;;;8.93;7.55;;;15.40;99.90;;;-141.84;80.23;18667.75;4768964;29;20235;-60
2022/08/22 04:41:00;;;;;;;7.75;7.05;;;15.40;99.90;;;-141.84;80.05;18663.69;4769016;29;20619;-60
2022/08/22 04:43:39;;;;;;;8.98;8.07;;;15.40;99.90;;;-141.84;80.49;18708.41;4769013;29;20237;-59
2022/08/22 04:46:19;;;;;;;8.10;7.38;;;15.50;99.90;;;-141.84;79.58;18673.84;4768908;29;20779;-60
2022/08/22 04:48:55;;;;;;;10.73;7.80;;;15.50;99.90;;;-141.84;78.31;18728.72;4769059;29;20226;-61
2022/08/22 04:51:34;;;;;;;9.98;7.68;;;15.60;99.90;;;-141.84;77.89;18789.66;4769320;29;20322;-60
2022/08/22 04:54:41;;;;;;;7.95;7.10;;;15.70;99.90;;;-141.84;78.52;18718.56;4769015;29;20194;-61
2022/08/22 04:57:39;;;;;;;8.50;7.28;;;15.70;99.90;;;-141.84;78.78;18692.13;4769291;29;20207;-59
2022/08/22 05:00:12;;;;;;;8.23;7.50;;;15.80;99.90;;;-141.84;77.98;18761.22;4768685;29;20242;-60
2022/08/22 05:02:50;;;;;;;8.32;7.50;;;15.80;99.90;;;-141.84;77.28;18787.63;4769481;30;20640;-59
2022/08/22 05:05:25;;;;;;;9.32;7.43;;;15.90;99.90;;;-141.84;75.90;18834.38;4767827;29;20720;-61
2022/08/22 05:07:59;;;;;;;8.95;7.25;;;16.00;99.90;;;-141.84;75.96;18850.63;4769093;29;20270;-60
2022/08/22 05:10:36;;;;;;;7.65;6.93;;;16.00;99.90;;;-141.84;76.85;18795.75;4768732;29;20318;-59
2022/08/22 05:13:15;;;;;;;7.72;6.93;;;16.00;99.90;;;-141.84;77.02;18826.25;4768900;29;20245;-61
2022/08/22 05:15:48;;;;;;;10.13;7.65;;;16.00;99.90;;;-141.84;76.60;18828.28;4768309;29;20238;-61
2022/08/22 05:18:23;;;;;;;9.07;7.47;;;16.10;99.90;;;-141.84;75.42;18870.94;4768541;29;20206;-60
2022/08/22 05:21:02;;;;;;;8.63;6.97;;;16.20;99.90;;;-141.84;75.87;18891.25;4768782;30;20680;-60
2022/08/22 05:23:40;;;;;;;9.27;7.43;;;16.30;99.90;;;-141.84;75.96;18848.59;4768509;30;20217;-61
2022/08/22 05:26:11;;;;;;;8.27;7.03;;;16.40;99.90;;;-141.84;75.96;18895.31;4768409;29;20318;-61
2022/08/22 05:28:44;;;;;;;7.78;6.97;;;16.50;99.90;;;-141.84;75.61;18891.25;4768627;29;20330;-60
2022/08/22 05:31:28;;;;;;;8.60;7.70;;;16.60;99.90;;;-141.84;73.44;18964.41;4768423;29;20258;-58
2022/08/22 05:34:04;;;;;;;7.57;6.88;;;16.70;99.90;;;-141.84;73.34;18956.28;4768415;29;20239;-61
2022/08/22 05:36:39;;;;;;;10.88;7.55;;;16.80;99.90;;;-141.84;72.51;19072.09;4768587;29;20310;-60
2022/08/22 05:39:16;;;;;;;8.15;7.45;;;16.90;99.90;;;-141.84;72.25;19031.47;4767995;29;20219;-60
2022/08/22 05:41:46;;;;;;;8.52;7.25;;;17.00;99.90;;;-141.84;72.00;19084.28;4769033;29;20187;-61
2022/08/22 05:44:20;;;;;;;8.55;7.65;;;17.10;99.90;;;-141.84;72.29;19072.09;4758753;29;20319;-62
2022/08/22 05:46:59;;;;;;;7.07;6.47;;;17.10;99.90;;;-141.84;71.97;19094.44;4750525;30;20281;-61
2022/08/22 05:49:37;;;;;;;8.63;7.72;;;17.20;99.90;;;-141.84;71.14;19151.34;4750487;30;20324;-60
2022/08/22 05:52:17;;;;;;;9.80;7.40;;;17.40;99.90;;;-141.84;69.96;19204.19;4750432;30;20239;-61
2022/08/22 05:54:57;;;;;;;8.15;6.97;;;17.50;99.90;;;-141.84;69.43;19309.84;4750043;30;20251;-61
2022/08/22 05:57:32;;;;;;;8.55;7.20;;;17.70;99.90;;;-141.84;68.96;19301.72;4750760;30;20314;-61
2022/08/22 06:00:08;;;;;;;7.10;6.40;;;18.00;99.90;;;-141.84;68.64;19332.19;4750424;30;20302;-60
2022/08/22 06:02:58;;;;;;;8.15;7.35;;;18.20;99.90;;;-141.84;65.62;19551.69;4749182;30;20220;-61
2022/08/22 06:05:33;;;;;;;10.45;7.90;;;18.30;99.90;;;-141.84;65.85;19569.97;4748577;30;20236;-62
2022/08/22 06:08:08;;;;;;;9.57;7.38;;;18.50;99.90;;;-141.84;65.86;19574.03;4749261;30;20243;-61
2022/08/22 06:10:44;;;;;;;9.27;7.57;;;18.50;99.90;;;-141.84;66.54;19557.78;4750237;30;20318;-61
2022/08/22 06:13:29;;;;;;;9.73;7.60;;;18.60;99.90;;;-141.84;65.80;19616.72;4757712;30;20349;-61
2022/08/22 06:16:10;;;;;;;9.20;7.63;;;18.70;99.90;;;-141.84;66.68;19608.56;4768526;29;20265;-60
2022/08/22 06:18:43;;;;;;;8.68;7.85;;;18.70;99.90;;;-141.84;66.97;19541.50;4771554;29;20235;-61
2022/08/22 06:21:20;;;;;;;9.85;8.23;;;18.70;99.90;;;-141.84;66.66;19594.34;4771299;29;20306;-62
2022/08/22 06:23:56;;;;;;;7.85;6.75;;;18.80;99.90;;;-141.84;66.82;19592.31;4772145;30;20274;-61
2022/08/22 06:26:33;;;;;;;10.70;7.50;;;18.80;99.90;;;-141.84;66.56;19628.91;4771457;29;20265;-59
2022/08/22 06:29:03;;;;;;;9.40;8.00;;;18.90;99.90;;;-141.84;66.66;19565.91;4761159;30;20607;-61
2022/08/22 06:31:36;;;;;;;8.68;7.50;;;18.90;99.90;;;-141.84;65.76;19632.97;4770946;29;20323;-61
2022/08/22 06:34:12;;;;;;;9.48;7.43;;;18.90;99.90;;;-141.84;66.63;19639.06;4771091;29;20266;-61
2022/08/22 06:36:48;;;;;;;8.95;7.65;;;18.80;99.90;;;-141.84;67.24;19582.16;4766808;29;20283;-59
2022/08/22 06:39:22;;;;;;;9.57;7.70;;;18.80;99.90;;;-141.84;66.22;19624.84;4753209;30;20224;-60
2022/08/22 06:41:59;;;;;;;8.75;7.30;;;18.80;99.90;;;-141.84;67.14;19616.72;4754006;30;20279;-59
2022/08/22 06:44:33;;;;;;;10.40;7.85;;;18.80;99.90;;;-141.84;65.45;19679.72;4769964;30;20251;-60
2022/08/22 06:47:09;;;;;;;6.93;6.32;;;18.80;99.90;;;-141.84;66.39;19683.78;4770972;29;20262;-59
2022/08/22 06:49:40;;;;;;;9.48;7.13;;;18.90;99.90;;;-141.84;66.38;19657.34;4771127;29;20742;-59
2022/08/22 06:52:13;;;;;;;7.93;7.10;;;19.00;99.90;;;-141.84;65.48;19671.56;4771015;29;20659;-60
2022/08/22 06:54:49;;;;;;;8.77;6.85;;;19.00;99.90;;;-141.84;66.32;19647.19;4771116;29;20231;-60
2022/08/22 06:57:32;;;;;;;7.68;6.88;;;19.00;99.90;;;-141.84;66.42;19671.56;4756687;30;20196;-60
2022/08/22 07:00:08;;;;;;;8.18;6.95;;;19.00;99.90;;;-141.84;66.60;19675.63;4753860;30;20288;-59
2022/08/22 07:02:43;;;;;;;7.22;6.53;;;19.00;99.90;;;-141.84;66.18;19708.16;4753279;30;20678;-60
2022/08/22 07:05:18;;;;;;;8.00;7.20;;;19.20;99.90;;;-141.84;65.50;19736.59;4753031;30;20242;-60
2022/08/22 07:07:48;;;;;;;9.32;7.88;;;19.20;99.90;;;-141.84;64.69;19815.88;4752989;30;20245;-59
2022/08/22 07:10:21;;;;;;;8.60;7.03;;;19.30;99.90;;;-141.84;64.30;19838.22;4752475;30;20231;-60
2022/08/22 07:12:56;;;;;;;8.82;8.00;;;19.30;99.90;;;-141.84;63.07;19919.53;4757128;30;20239;-60
2022/08/22 07:15:35;;;;;;;8.15;6.88;;;19.40;99.90;;;-141.84;63.03;19907.31;4770805;29;20278;-61
2022/08/22 07:18:08;;;;;;;7.53;6.80;;;19.60;99.90;;;-141.84;62.78;20000.81;4770805;29;20275;-60
2022/08/22 07:20:44;;;;;;;7.93;7.13;;;19.80;99.90;;;-141.84;62.53;20025.22;4771216;30;20216;-59
2022/08/22 07:23:30;;;;;;;9.45;6.88;;;20.00;99.90;;;-141.84;60.92;20157.31;4770593;29;20262;-59
2022/08/22 07:26:20;;;;;;;8.50;7.70;;;20.30;99.90;;;-141.84;57.94;20358.56;4770231;29;20806;-62
2022/08/22 07:28:55;;;;;;;8.45;7.43;;;20.70;99.90;;;-141.84;56.72;20517.09;4769635;29;20234;-61
2022/08/22 07:31:37;;;;;;;7.78;6.70;;;21.00;99.90;;;-141.84;57.36;20474.41;4770221;29;20745;-59
2022/08/22 07:34:28;;;;;;;6.13;5.47;;;21.10;99.90;;;-141.84;56.82;20580.13;4770402;29;20238;-59
2022/08/22 07:37:04;;;;;;;9.32;7.03;;;21.10;99.90;;;-141.84;56.54;20618.72;4770446;29;20265;-60
2022/08/22 07:39:44;;;;;;;9.88;7.20;;;21.30;99.90;;;-141.84;54.27;20683.78;4757373;30;20277;-60
2022/08/22 07:42:18;;;;;;;9.27;7.53;;;21.40;99.90;;;-141.84;53.59;20822.03;4753795;30;20224;-61
2022/08/22 07:45:07;;;;;;;9.43;7.20;;;21.50;99.90;;;-141.84;54.48;20716.31;4735012;30;20243;-59
2022/08/22 07:48:02;;;;;;;12.10;7.72;;;21.30;99.90;;;-141.84;54.62;20777.28;4735450;30;20323;-58
2022/08/22 07:50:38;;;;;;;8.85;6.70;;;21.30;99.90;;;-141.84;55.10;20710.22;4735508;30;20744;-60
2022/08/22 07:53:29;;;;;;;8.05;7.25;;;21.30;99.90;;;-141.84;55.59;20732.56;4735339;30;20756;-60
2022/08/22 07:56:02;;;;;;;9.10;7.15;;;21.40;99.90;;;-141.84;55.65;20750.88;4734331;30;20249;-59
2022/08/22 07:58:35;;;;;;;9.32;7.47;;;21.40;99.90;;;-141.84;54.55;20744.78;4735506;30;20228;-60
2022/08/22 08:01:09;;;;;;;7.60;6.55;;;21.30;99.90;;;-141.84;54.74;20746.81;4735040;30;20716;-60
2022/08/22 08:03:39;;;;;;;7.75;6.93;;;21.20;99.90;;;-141.84;55.00;20748.84;4735521;30;20300;-60
2022/08/22 08:06:09;;;;;;;10.15;7.00;;;21.30;99.90;;;-141.84;54.65;20840.31;4736090;30;20492;-60
2022/08/22 08:08:43;;;;;;;9.52;7.10;;;21.40;99.90;;;-141.84;53.72;20848.44;4735115;30;20239;-59
2022/08/22 08:11:17;;;;;;;8.75;7.10;;;21.60;99.90;;;-141.84;53.07;20846.41;4735140;30;20242;-60
2022/08/22 08:13:53;;;;;;;8.07;6.00;;;21.70;99.90;;;-141.84;52.35;20915.53;4757004;29;20242;-59
2022/08/22 08:16:27;;;;;;;8.20;6.28;;;21.70;99.90;;;-141.84;52.71;20970.41;4770467;29;20238;-59
2022/08/22 08:18:59;;;;;;;7.15;6.20;;;21.80;99.90;;;-141.84;52.75;20941.97;4770630;29;20236;-61
2022/08/22 08:21:41;;;;;;;8.70;6.13;;;21.80;99.90;;;-141.84;53.04;20950.09;4770517;29;20307;-61
2022/08/22 08:24:19;;;;;;;5.43;4.85;;;21.90;99.90;;;-141.84;52.06;20992.78;4770473;30;20533;-60
2022/08/22 08:29:54;;;;;;;8.88;6.05;;;22.00;99.90;;;-141.84;50.59;21063.94;4768007;29;20242;-59
2022/08/22 08:32:29;;;;;;;7.72;5.20;;;22.10;99.90;;;-141.84;49.78;21084.28;4770034;29;20239;-59
2022/08/22 08:34:59;;;;;;;7.38;4.93;;;22.10;99.90;;;-141.84;49.52;21126.97;4769465;29;20750;-61
2022/08/22 08:37:39;;;;;;;7.90;4.30;;;22.20;99.90;;;-141.84;49.78;21094.44;4769139;29;20302;-59
2022/08/22 08:40:35;;;;;;;8.30;4.82;;;22.20;99.90;;;-141.84;50.09;21118.84;4768960;29;20238;-60
2022/08/22 08:43:28;;;;;;;5.75;4.43;;;22.10;99.90;;;-141.84;50.14;21151.34;4769256;29;20723;-60
2022/08/22 08:46:28;;;;;;;5.07;4.07;;;22.10;99.90;;;-141.84;48.20;21187.97;4769070;29;20239;-60
2022/08/22 08:49:35;;;;;;;7.65;3.40;;;22.30;99.90;;;-141.84;48.71;21173.72;4766543;29;20242;-60
2022/08/22 08:52:53;;;;;;;4.78;3.35;;;22.30;99.90;;;-141.84;47.55;21236.75;4769151;29;20259;-60
2022/08/22 08:55:41;;;;;;;4.57;2.80;;;22.30;99.90;;;-141.84;47.10;21259.13;4768884;29;20239;-59
2022/08/22 08:58:42;;;;;;;4.20;3.22;;;22.50;99.90;;;-141.84;47.19;21314.00;4769094;29;20619;-58
2022/08/22 09:01:46;;;;;;;3.58;2.80;;;22.50;99.90;;;-141.84;45.91;21395.34;4768671;29;20231;-60
2022/08/22 09:04:44;;;;;;;6.00;3.70;;;22.70;99.90;;;-141.84;46.21;21403.47;4769203;29;20231;-61
2022/08/22 09:07:43;;;;;;;5.22;2.97;;;22.90;99.90;;;-141.84;46.07;21427.88;4768730;29;20239;-59
2022/08/22 09:10:35;;;;;;;5.18;3.05;;;22.90;99.90;;;-141.84;46.02;21419.72;4768535;29;20724;-59
2022/08/22 09:13:34;;;;;;;4.15;2.75;;;22.90;99.90;;;-141.84;44.82;21470.56;4769369;29;20241;-61
2022/08/22 09:16:46;;;;;;;3.05;2.55;;;23.00;99.90;;;-141.84;44.06;21480.72;4768976;29;20245;-60
2022/08/22 09:19:59;;;;;;;4.30;2.80;;;23.00;99.90;;;-141.84;45.29;21501.06;4768727;29;20263;-60
2022/08/22 09:23:17;;;;;;;5.85;3.03;;;23.10;99.90;;;-141.84;44.43;21545.78;4768496;29;20785;-59
2022/08/22 09:25:55;;;;;;;4.38;3.03;;;23.20;99.90;;;-141.84;44.99;21562.06;4768328;29;20267;-58
2022/08/22 09:28:35;;;;;;;5.00;2.80;;;23.30;99.90;;;-141.84;44.64;21582.38;4768440;29;20238;-59
2022/08/22 09:31:26;;;;;;;2.92;2.40;;;23.40;99.90;;;-141.84;43.70;21675.94;4768482;29;20330;-60
2022/08/22 09:34:28;;;;;;;4.07;2.30;;;23.50;99.90;;;-141.84;42.66;21736.94;4768602;29;20620;-61
2022/08/22 09:37:20;;;;;;;2.63;2.20;;;23.70;99.90;;;-141.84;42.69;21728.78;4768346;29;20321;-59
2022/08/22 09:40:02;;;;;;;4.82;2.70;;;23.80;99.90;;;-141.84;43.08;21686.09;4768304;29;20259;-60
2022/08/22 09:42:45;;;;;;;3.60;2.20;;;23.70;99.90;;;-141.84;43.13;21789.78;4768321;29;20306;-60
2022/08/22 09:45:46;;;;;;;4.72;2.42;;;23.80;99.90;;;-141.84;42.69;21781.66;4759712;30;20215;-60
2022/08/22 09:48:43;;;;;;;2.72;2.03;;;23.90;99.90;;;-141.84;42.90;21785.72;4766416;30;20687;-61
2022/08/22 09:51:30;;;;;;;3.85;2.22;;;24.00;99.90;;;-141.84;41.41;21887.41;4769041;30;20231;-62
2022/08/22 09:54:23;;;;;;;4.35;1.83;;;24.10;99.90;;;-141.84;40.12;21903.66;4774161;30;20550;-61
2022/08/22 09:57:14;;;;;;;6.18;2.08;;;24.00;99.90;;;-141.84;39.92;21858.94;4774348;30;20600;-60
2022/08/22 10:00:14;;;;;;;4.70;1.80;;;24.00;99.90;;;-141.84;39.56;21901.63;4773740;29;20243;-62
2022/08/22 10:02:56;;;;;;;2.13;1.77;;;24.10;99.90;;;-141.84;40.77;21899.59;4761978;29;20326;-59
2022/08/22 10:05:37;;;;;;;2.97;2.20;;;24.10;99.90;;;-141.84;40.67;21913.84;4756187;30;20239;-59
2022/08/22 10:08:30;;;;;;;4.22;2.33;;;24.30;99.90;;;-141.84;40.98;21991.09;4756422;30;20318;-60
2022/08/22 10:11:27;;;;;;;3.35;2.10;;;24.30;99.90;;;-141.84;41.18;21989.06;4756131;30;20734;-60
2022/08/22 10:14:03;;;;;;;3.85;2.22;;;24.50;99.90;;;-141.84;40.34;22005.34;4760418;29;20303;-61
2022/08/22 10:16:57;;;;;;;2.42;2.15;;;24.60;99.90;;;-141.84;40.80;22078.53;4773991;29;20269;-59
2022/08/22 10:19:35;;;;;;;3.63;2.10;;;24.90;99.90;;;-141.84;40.41;22066.34;4774090;29;20317;-59
2022/08/22 10:22:29;;;;;;;3.80;1.98;;;24.90;99.90;;;-141.84;40.31;22039.91;4773787;29;20266;-59
2022/08/22 10:25:22;;;;;;;5.75;2.60;;;24.80;99.90;;;-141.84;40.34;22031.78;4774022;29;20318;-59
2022/08/22 10:28:08;;;;;;;2.70;2.00;;;24.80;99.90;;;-141.84;40.36;22029.75;4761969;29;20242;-60
2022/08/22 10:30:52;;;;;;;4.43;2.25;;;24.70;99.90;;;-141.84;40.91;22013.47;4761501;29;20206;-59
2022/08/22 10:33:29;;;;;;;4.38;2.50;;;24.70;99.90;;;-141.84;40.72;22046.00;4774240;30;20278;-60
2022/08/22 10:36:09;;;;;;;3.88;2.28;;;24.60;99.90;;;-141.84;40.58;22133.44;4773604;30;20661;-59
2022/08/22 10:38:46;;;;;;;5.90;2.17;;;24.90;99.90;;;-141.84;40.11;22094.81;4773298;29;20304;-58
2022/08/22 10:41:31;;;;;;;3.13;2.03;;;24.80;99.90;;;-141.84;40.57;22048.03;4773010;29;20274;-58
2022/08/22 10:44:10;;;;;;;3.78;2.22;;;24.60;99.90;;;-141.84;40.32;22043.97;4773149;29;20712;-59
2022/08/22 10:46:56;;;;;;;2.30;1.90;;;24.60;99.90;;;-141.84;40.34;22043.97;4773017;29;20239;-59
2022/08/22 10:49:32;;;;;;;4.03;2.15;;;24.60;99.90;;;-141.84;40.08;21989.06;4773406;29;20238;-60
2022/08/22 10:52:08;;;;;;;4.03;2.38;;;24.50;99.90;;;-141.84;39.78;22117.19;4773102;29;20243;-62
2022/08/22 10:54:51;;;;;;;2.95;2.00;;;24.60;99.90;;;-141.84;40.14;22127.34;4773246;29;20203;-60
2022/08/22 10:57:55;;;;;;;2.90;1.98;;;24.70;99.90;;;-141.84;40.02;22182.25;4773580;30;20668;-60
2022/08/22 11:00:47;;;;;;;2.95;2.10;;;24.90;99.90;;;-141.84;39.93;22257.50;4766473;30;20322;-60
2022/08/22 11:03:25;;;;;;;2.95;1.90;;;25.00;99.90;;;-141.84;39.92;22212.75;4752290;30;20278;-60
2022/08/22 11:06:00;;;;;;;3.50;2.00;;;25.10;99.90;;;-141.84;39.67;22220.91;4752849;30;20292;-58
2022/08/22 11:08:54;;;;;;;4.50;2.35;;;25.30;99.90;;;-141.84;40.04;22224.97;4752324;30;20241;-59
2022/08/22 11:11:38;;;;;;;2.47;2.25;;;25.10;99.90;;;-141.84;39.75;22216.81;4752059;29;20779;-61
2022/08/22 11:14:57;;;;;;;2.67;2.03;;;25.20;99.90;;;-141.84;40.24;22121.25;4766009;29;20235;-61
2022/08/22 11:18:19;;;;;;;4.20;2.22;;;25.10;99.90;;;-141.84;40.34;22178.19;4768222;29;20243;-60
2022/08/22 11:21:01;;;;;;;3.67;2.35;;;25.00;99.90;;;-141.84;40.24;22216.81;4770196;30;20290;-59
2022/08/22 11:23:45;;;;;;;3.13;2.42;;;25.10;99.90;;;-141.84;39.84;22245.28;4769694;29;20621;-61
2022/08/22 11:26:34;;;;;;;5.38;2.40;;;25.20;99.90;;;-141.84;40.50;22147.69;4769788;29;20321;-59